Accueil
METAR-TAF:

METAR-TAF

Aéroports :

Daniel Field Airport

Augusta, Géorgie, États-Unis

latitude: 33-28-01N, longitude: 082-02-19W, altitude: 128 m

Observation

Le bulletin a été fait il y a 47 minutes, à 20:53 UTC
Vent 4 kt de nord/nord-ouest
Température 18°C
Humidité 37%
Pression 1021 hPa
Visibilité: 16.1 km
Ciel clair

METAR: KDNL 202053Z AUTO 34004KT 10SM CLR 18/03 A3015 RMK AO2 SLP208 T01830033 55000 TSNO

Heure: 16:40 (21:40 UTC)

Prévision

Le bulletin a été fait il y a 57 minutes, à 20:43 UTC
Prévision valable du 20 à 21 UTC au 21 à 18 UTC
Vent 5 kt de nord
Visibilité: 10 km
Ciel clair
A partir de 20 à 2300 UTC
Vent kt de nord
Visibilité: 10 km
Ciel clair
A partir de 21 à 1400 UTC
Vent 5 kt de sud-est
Visibilité: 10 km
Nuages épars à une hauteur de 25000 ft

TAF: KDNL 202043Z 2021/2118 01005KT P6SM SKC FM202300 00000KT P6SM SKC FM211400 14005KT P6SM SCT250

Observations et prévisions météorologiques de plus de 4000 aéroports (messages METAR et TAF).

Les stations disponibles sont représentées par des disques jaunes et rouges sur la carte.

Passer la souris dessus pour voir le nom de la station.

Cliquer dessus pour voir les observations et prévisions météorologiques.

Pour changer de carte: cliquez sur les boutons verts avec une croix noire pour zoomer, sur le bouton vert avec un tiret pour effectuer un zoom arrière, ou sur les flèches vertes pour les cartes adjacentes.


METAR-TAF: